createdAt,value
2023-07-07T00:04:22.911Z,13.63
2023-07-07T00:09:30.527Z,13.63
2023-07-07T00:14:38.615Z,13.62
2023-07-07T00:19:48.567Z,13.59
2023-07-07T00:24:57.501Z,13.50
2023-07-07T00:30:06.061Z,13.48
2023-07-07T00:35:13.922Z,13.47
2023-07-07T00:40:22.339Z,13.40
2023-07-07T00:51:16.054Z,13.31
2023-07-07T00:56:28.766Z,13.17
2023-07-07T01:01:37.965Z,13.05
2023-07-07T01:06:50.239Z,12.95
2023-07-07T01:11:57.659Z,12.96
2023-07-07T01:17:16.867Z,12.96
2023-07-07T01:22:57.840Z,12.95
2023-07-07T01:28:37.946Z,12.92
2023-07-07T01:33:46.944Z,12.86
2023-07-07T01:38:54.742Z,12.79
2023-07-07T01:44:10.836Z,12.79
2023-07-07T01:49:23.461Z,12.80
2023-07-07T01:54:34.760Z,12.74
2023-07-07T01:59:44.086Z,12.72
2023-07-07T02:04:52.248Z,12.73
2023-07-07T02:09:59.826Z,12.72
2023-07-07T02:15:09.031Z,12.73
2023-07-07T02:20:16.921Z,12.71
2023-07-07T02:25:24.319Z,12.62
2023-07-07T02:30:31.628Z,12.56
2023-07-07T02:35:39.089Z,12.55
2023-07-07T02:40:47.229Z,12.59
2023-07-07T02:51:31.035Z,12.56
2023-07-07T02:56:38.460Z,12.52
2023-07-07T03:01:46.122Z,12.46
2023-07-07T03:06:53.802Z,12.46
2023-07-07T03:12:01.602Z,12.52
2023-07-07T03:17:10.835Z,12.53
2023-07-07T03:22:18.205Z,12.50
2023-07-07T03:27:25.537Z,12.47
2023-07-07T03:32:32.810Z,12.49
2023-07-07T03:37:41.657Z,12.54
2023-07-07T03:42:48.978Z,12.59
2023-07-07T03:52:39.404Z,12.73
2023-07-07T03:57:46.805Z,12.81
2023-07-07T04:02:54.599Z,12.88
2023-07-07T04:08:02.417Z,12.97
2023-07-07T04:13:09.965Z,13.08
2023-07-07T04:18:17.954Z,13.17
2023-07-07T04:23:26.588Z,13.25
2023-07-07T04:28:34.083Z,13.39
2023-07-07T04:33:42.822Z,13.52
2023-07-07T04:38:51.208Z,13.65
2023-07-07T04:44:01.388Z,13.76
2023-07-07T04:49:10.479Z,13.89
2023-07-07T04:54:18.317Z,14.07
2023-07-07T04:59:25.895Z,14.22
2023-07-07T05:04:33.715Z,14.38
2023-07-07T05:09:41.562Z,14.52
2023-07-07T05:14:49.236Z,14.69
2023-07-07T05:19:56.901Z,14.91
2023-07-07T05:25:05.177Z,15.11
2023-07-07T05:30:14.255Z,15.31
2023-07-07T05:38:08.426Z,15.76
2023-07-07T05:43:16.524Z,16.04
2023-07-07T05:48:24.158Z,16.28
2023-07-07T05:53:32.334Z,16.48
2023-07-07T05:58:43.188Z,16.62
2023-07-07T06:03:51.213Z,16.78
2023-07-07T06:08:58.971Z,16.96
2023-07-07T06:24:00.455Z,17.53
2023-07-07T06:29:08.140Z,17.72
2023-07-07T06:34:15.765Z,17.94
2023-07-07T06:39:24.078Z,18.08
2023-07-07T06:44:34.270Z,18.20
2023-07-07T06:49:41.971Z,18.32
2023-07-07T06:54:49.366Z,18.45
2023-07-07T07:00:23.917Z,18.65
2023-07-07T07:05:31.841Z,18.78
2023-07-07T07:10:39.484Z,18.90
2023-07-07T07:15:46.852Z,19.00
2023-07-07T07:20:56.942Z,19.11
2023-07-07T07:26:06.004Z,19.21
2023-07-07T07:31:14.821Z,19.33
2023-07-07T07:36:23.006Z,19.51
2023-07-07T07:41:31.045Z,19.68
2023-07-07T07:46:38.794Z,19.82
2023-07-07T07:51:48.639Z,19.97
2023-07-07T07:56:56.335Z,20.12
2023-07-07T08:02:04.336Z,20.24
2023-07-07T08:07:12.263Z,20.38
2023-07-07T08:12:19.972Z,20.50
2023-07-07T08:17:28.610Z,20.64
2023-07-07T08:22:36.434Z,20.76
2023-07-07T08:28:06.797Z,20.91
2023-07-07T08:33:12.119Z,21.10
2023-07-07T08:38:19.732Z,21.35
2023-07-07T08:43:29.716Z,21.66
2023-07-07T08:48:43.864Z,21.98
2023-07-07T08:59:31.990Z,22.59
2023-07-07T09:04:51.329Z,22.90
2023-07-07T09:10:25.570Z,23.11
2023-07-07T09:15:38.170Z,23.03
2023-07-07T09:20:48.795Z,22.90
2023-07-07T09:26:01.632Z,22.83
2023-07-07T09:31:22.651Z,22.97
2023-07-07T09:36:36.486Z,22.88
2023-07-07T09:41:52.972Z,22.76
2023-07-07T09:47:11.748Z,22.87
2023-07-07T09:52:40.898Z,23.03
2023-07-07T09:57:57.033Z,23.01
2023-07-07T10:03:09.084Z,23.12
2023-07-07T10:08:17.764Z,23.28
2023-07-07T10:13:26.253Z,23.45
2023-07-07T10:24:05.592Z,23.54
2023-07-07T10:29:17.717Z,23.52
2023-07-07T10:34:33.146Z,23.60
2023-07-07T10:39:40.802Z,23.70
2023-07-07T10:44:48.811Z,23.83
2023-07-07T10:49:57.690Z,23.91
2023-07-07T10:55:12.152Z,23.92
2023-07-07T11:00:38.947Z,23.95
2023-07-07T11:06:02.611Z,23.99
2023-07-07T11:11:24.672Z,24.01
2023-07-07T11:16:41.629Z,23.93
2023-07-07T11:22:01.673Z,23.83
2023-07-07T11:27:39.782Z,23.89
2023-07-07T11:33:00.812Z,23.93
2023-07-07T11:38:27.632Z,23.86
2023-07-07T11:44:03.560Z,23.82
2023-07-07T11:52:49.227Z,23.79
2023-07-07T11:58:07.759Z,23.89
2023-07-07T12:03:36.660Z,24.04
2023-07-07T12:08:52.957Z,24.01
2023-07-07T12:14:15.571Z,23.86
2023-07-07T12:19:33.576Z,23.93
2023-07-07T12:24:49.361Z,24.07
2023-07-07T12:29:58.508Z,24.19
2023-07-07T12:35:17.192Z,24.29
2023-07-07T12:40:26.218Z,24.33
2023-07-07T12:45:40.290Z,24.32
2023-07-07T12:50:49.172Z,24.27
2023-07-07T12:56:15.420Z,24.29
2023-07-07T13:01:36.955Z,24.40
2023-07-07T13:06:49.640Z,24.48
2023-07-07T13:11:59.714Z,24.59
2023-07-07T13:17:10.970Z,24.61
2023-07-07T13:22:23.949Z,24.49
2023-07-07T13:27:33.106Z,24.54
2023-07-07T13:32:40.896Z,24.65
2023-07-07T13:37:48.843Z,24.76
2023-07-07T13:42:57.459Z,24.73
2023-07-07T13:48:19.834Z,24.72
2023-07-07T13:53:30.880Z,24.74
2023-07-07T13:58:44.490Z,24.74
2023-07-07T14:03:53.833Z,24.76
2023-07-07T14:09:01.933Z,24.64
2023-07-07T14:14:10.922Z,24.66
2023-07-07T14:19:25.985Z,24.70
2023-07-07T14:24:34.900Z,24.69
2023-07-07T14:29:44.964Z,24.70
2023-07-07T14:34:55.460Z,24.75
2023-07-07T14:40:13.695Z,24.81
2023-07-07T14:45:31.338Z,24.87
2023-07-07T14:50:39.504Z,24.84
2023-07-07T14:55:51.998Z,24.78
2023-07-07T15:01:09.543Z,24.79
2023-07-07T15:06:24.203Z,24.76
2023-07-07T15:11:35.776Z,24.75
2023-07-07T15:16:44.149Z,24.78
2023-07-07T15:21:52.370Z,24.79
2023-07-07T15:26:59.922Z,24.78
2023-07-07T15:32:13.531Z,24.76
2023-07-07T15:37:21.365Z,24.73
2023-07-07T15:42:29.453Z,24.74
2023-07-07T15:47:38.145Z,24.73
2023-07-07T15:52:46.018Z,24.72
2023-07-07T15:57:53.618Z,24.71
2023-07-07T16:03:01.797Z,24.70
2023-07-07T16:08:14.316Z,24.72
2023-07-07T16:13:22.026Z,24.75
2023-07-07T16:18:30.001Z,24.73
2023-07-07T16:33:37.599Z,24.88
2023-07-07T16:38:48.057Z,24.88
2023-07-07T16:43:57.074Z,24.83
2023-07-07T16:49:05.183Z,24.74
2023-07-07T16:54:12.920Z,24.69
2023-07-07T16:59:20.708Z,24.66
2023-07-07T17:04:28.748Z,24.62
2023-07-07T17:09:38.765Z,24.59
2023-07-07T17:14:47.624Z,24.60
2023-07-07T17:19:55.496Z,24.60
2023-07-07T17:25:02.812Z,24.53
2023-07-07T17:30:23.108Z,24.47
2023-07-07T17:35:30.931Z,24.45
2023-07-07T17:40:41.454Z,24.48
2023-07-07T17:45:48.914Z,24.49
2023-07-07T17:50:58.307Z,24.44
2023-07-07T17:56:07.066Z,24.36
2023-07-07T18:01:15.776Z,24.21
2023-07-07T18:06:28.715Z,24.00
2023-07-07T18:11:35.931Z,23.85
2023-07-07T18:16:49.617Z,23.70
2023-07-07T18:22:07.337Z,23.52
2023-07-07T18:27:15.182Z,23.36
2023-07-07T18:32:22.948Z,23.21
2023-07-07T18:37:30.252Z,23.05
2023-07-07T18:42:37.788Z,22.91
2023-07-07T18:47:45.693Z,22.67
2023-07-07T18:52:53.273Z,22.23
2023-07-07T18:58:01.294Z,21.76
2023-07-07T19:03:12.868Z,21.32
2023-07-07T19:08:24.200Z,21.00
2023-07-07T19:13:31.987Z,20.74
2023-07-07T19:18:42.286Z,20.48
2023-07-07T19:23:49.576Z,20.24
2023-07-07T19:28:58.092Z,19.98
2023-07-07T19:34:08.036Z,19.74
2023-07-07T19:39:19.299Z,19.52
2023-07-07T19:44:33.311Z,19.31
2023-07-07T19:49:43.564Z,19.14
2023-07-07T19:54:51.066Z,18.96
2023-07-07T19:59:58.618Z,18.71
2023-07-07T20:05:06.600Z,18.53
2023-07-07T20:10:20.524Z,18.36
2023-07-07T20:15:27.735Z,18.18
2023-07-07T20:20:34.981Z,18.07
2023-07-07T20:25:42.451Z,17.92
2023-07-07T20:30:57.368Z,17.80
2023-07-07T20:36:04.921Z,17.67
2023-07-07T20:41:15.952Z,17.49
2023-07-07T20:52:14.715Z,17.30
2023-07-07T20:57:20.439Z,17.18
2023-07-07T21:02:25.384Z,17.11
2023-07-07T21:07:29.423Z,16.99
2023-07-07T21:12:34.747Z,16.89
2023-07-07T21:17:39.281Z,16.86
2023-07-07T21:22:43.877Z,16.82
2023-07-07T21:27:48.118Z,16.81
2023-07-07T21:32:53.148Z,16.81
2023-07-07T21:37:57.644Z,16.68
2023-07-07T21:43:04.631Z,16.52
2023-07-07T21:48:19.087Z,16.43
2023-07-07T21:53:25.789Z,16.38
2023-07-07T21:58:32.180Z,16.31
2023-07-07T22:03:40.775Z,16.26
2023-07-07T22:08:46.232Z,16.22
2023-07-07T22:13:57.968Z,16.15
2023-07-07T22:19:02.990Z,16.02
2023-07-07T22:24:07.829Z,15.87
2023-07-07T22:29:14.759Z,15.77
2023-07-07T22:34:19.021Z,15.72
2023-07-07T22:39:23.704Z,15.64
2023-07-07T22:44:27.873Z,15.57
2023-07-07T22:49:32.647Z,15.53
2023-07-07T22:54:36.649Z,15.52
2023-07-07T22:59:40.896Z,15.52
2023-07-07T23:04:44.796Z,15.44
2023-07-07T23:09:49.352Z,15.39
2023-07-07T23:14:53.348Z,15.36
2023-07-07T23:20:00.150Z,15.28
2023-07-07T23:25:06.945Z,15.12
2023-07-07T23:30:22.419Z,15.06
2023-07-07T23:35:27.779Z,14.96
2023-07-07T23:40:33.371Z,14.90
2023-07-07T23:45:38.707Z,14.87
2023-07-07T23:51:00.815Z,14.80
2023-07-07T23:56:14.711Z,14.81
